sensor_id;sensor_type;location;lat;lon;timestamp;P1;durP1;ratioP1;P2;durP2;ratioP2
3647;SDS011;1840;48.892;15.312;2022-11-15T00:01:09;97.80;;;39.23;;
3647;SDS011;1840;48.892;15.312;2022-11-15T00:03:44;78.73;;;36.07;;
3647;SDS011;1840;48.892;15.312;2022-11-15T00:06:13;81.80;;;36.27;;
3647;SDS011;1840;48.892;15.312;2022-11-15T00:08:41;88.17;;;38.00;;
3647;SDS011;1840;48.892;15.312;2022-11-15T00:11:09;92.37;;;37.53;;
3647;SDS011;1840;48.892;15.312;2022-11-15T00:13:39;121.13;;;40.87;;
3647;SDS011;1840;48.892;15.312;2022-11-15T00:16:08;88.23;;;36.13;;
3647;SDS011;1840;48.892;15.312;2022-11-15T00:18:37;121.13;;;37.63;;
3647;SDS011;1840;48.892;15.312;2022-11-15T00:21:07;108.53;;;39.23;;
3647;SDS011;1840;48.892;15.312;2022-11-15T00:23:38;98.47;;;36.63;;
3647;SDS011;1840;48.892;15.312;2022-11-15T00:26:06;102.67;;;40.13;;
3647;SDS011;1840;48.892;15.312;2022-11-15T00:28:34;83.53;;;37.60;;
3647;SDS011;1840;48.892;15.312;2022-11-15T00:31:02;87.80;;;40.10;;
3647;SDS011;1840;48.892;15.312;2022-11-15T00:33:31;81.87;;;37.47;;
3647;SDS011;1840;48.892;15.312;2022-11-15T00:36:00;104.90;;;40.33;;
3647;SDS011;1840;48.892;15.312;2022-11-15T00:38:31;133.47;;;42.23;;
3647;SDS011;1840;48.892;15.312;2022-11-15T00:41:00;94.90;;;37.60;;
3647;SDS011;1840;48.892;15.312;2022-11-15T00:43:35;84.60;;;38.23;;
3647;SDS011;1840;48.892;15.312;2022-11-15T00:46:03;88.53;;;38.60;;
3647;SDS011;1840;48.892;15.312;2022-11-15T00:48:31;107.03;;;39.40;;
3647;SDS011;1840;48.892;15.312;2022-11-15T00:50:59;90.77;;;37.57;;
3647;SDS011;1840;48.892;15.312;2022-11-15T00:53:27;86.37;;;37.20;;
3647;SDS011;1840;48.892;15.312;2022-11-15T00:55:57;96.67;;;40.70;;
3647;SDS011;1840;48.892;15.312;2022-11-15T00:58:25;80.87;;;37.30;;
3647;SDS011;1840;48.892;15.312;2022-11-15T01:00:53;94.97;;;38.87;;
3647;SDS011;1840;48.892;15.312;2022-11-15T01:03:25;86.50;;;38.67;;
3647;SDS011;1840;48.892;15.312;2022-11-15T01:05:53;126.63;;;41.97;;
3647;SDS011;1840;48.892;15.312;2022-11-15T01:08:21;95.70;;;40.00;;
3647;SDS011;1840;48.892;15.312;2022-11-15T01:10:49;105.47;;;40.23;;
3647;SDS011;1840;48.892;15.312;2022-11-15T01:13:18;85.10;;;37.93;;
3647;SDS011;1840;48.892;15.312;2022-11-15T01:15:46;92.67;;;39.00;;
3647;SDS011;1840;48.892;15.312;2022-11-15T01:18:14;114.00;;;40.60;;
3647;SDS011;1840;48.892;15.312;2022-11-15T01:20:42;104.10;;;37.87;;
3647;SDS011;1840;48.892;15.312;2022-11-15T01:23:10;88.70;;;37.77;;
3647;SDS011;1840;48.892;15.312;2022-11-15T01:25:38;96.57;;;38.47;;
3647;SDS011;1840;48.892;15.312;2022-11-15T01:28:06;99.23;;;37.30;;
3647;SDS011;1840;48.892;15.312;2022-11-15T01:30:36;90.03;;;38.33;;
3647;SDS011;1840;48.892;15.312;2022-11-15T01:33:04;110.93;;;39.40;;
3647;SDS011;1840;48.892;15.312;2022-11-15T01:35:32;93.13;;;38.87;;
3647;SDS011;1840;48.892;15.312;2022-11-15T01:38:00;108.50;;;39.47;;
3647;SDS011;1840;48.892;15.312;2022-11-15T01:40:28;111.43;;;37.87;;
3647;SDS011;1840;48.892;15.312;2022-11-15T01:42:56;123.73;;;44.30;;
3647;SDS011;1840;48.892;15.312;2022-11-15T01:45:24;150.97;;;42.77;;
3647;SDS011;1840;48.892;15.312;2022-11-15T01:47:54;103.50;;;38.67;;
3647;SDS011;1840;48.892;15.312;2022-11-15T01:50:24;92.80;;;38.27;;
3647;SDS011;1840;48.892;15.312;2022-11-15T01:52:55;101.57;;;40.80;;
3647;SDS011;1840;48.892;15.312;2022-11-15T01:55:26;140.07;;;42.13;;
3647;SDS011;1840;48.892;15.312;2022-11-15T01:57:55;110.07;;;42.23;;
3647;SDS011;1840;48.892;15.312;2022-11-15T02:00:27;104.83;;;43.10;;
3647;SDS011;1840;48.892;15.312;2022-11-15T02:02:57;113.73;;;41.93;;
3647;SDS011;1840;48.892;15.312;2022-11-15T02:05:25;98.43;;;41.77;;
3647;SDS011;1840;48.892;15.312;2022-11-15T02:07:54;103.13;;;38.80;;
3647;SDS011;1840;48.892;15.312;2022-11-15T02:10:23;110.10;;;41.03;;
3647;SDS011;1840;48.892;15.312;2022-11-15T02:12:52;106.60;;;43.63;;
3647;SDS011;1840;48.892;15.312;2022-11-15T02:15:20;111.07;;;43.50;;
3647;SDS011;1840;48.892;15.312;2022-11-15T02:17:58;118.07;;;45.20;;
3647;SDS011;1840;48.892;15.312;2022-11-15T02:23:53;94.37;;;39.67;;
3647;SDS011;1840;48.892;15.312;2022-11-15T02:26:51;122.53;;;46.00;;
3647;SDS011;1840;48.892;15.312;2022-11-15T02:29:48;102.03;;;39.90;;
3647;SDS011;1840;48.892;15.312;2022-11-15T02:32:33;153.30;;;43.60;;
3647;SDS011;1840;48.892;15.312;2022-11-15T02:35:10;114.03;;;40.87;;
3647;SDS011;1840;48.892;15.312;2022-11-15T02:37:45;139.70;;;40.53;;
3647;SDS011;1840;48.892;15.312;2022-11-15T02:40:22;107.17;;;39.47;;
3647;SDS011;1840;48.892;15.312;2022-11-15T02:43:07;101.40;;;37.47;;
3647;SDS011;1840;48.892;15.312;2022-11-15T02:45:56;127.73;;;40.13;;
3647;SDS011;1840;48.892;15.312;2022-11-15T02:48:30;114.90;;;36.90;;
3647;SDS011;1840;48.892;15.312;2022-11-15T02:50:58;98.77;;;39.60;;
3647;SDS011;1840;48.892;15.312;2022-11-15T02:53:27;132.10;;;38.83;;
3647;SDS011;1840;48.892;15.312;2022-11-15T02:55:56;110.87;;;39.70;;
3647;SDS011;1840;48.892;15.312;2022-11-15T02:58:29;110.97;;;40.80;;
3647;SDS011;1840;48.892;15.312;2022-11-15T03:01:12;157.77;;;41.03;;
3647;SDS011;1840;48.892;15.312;2022-11-15T03:03:52;136.63;;;43.40;;
3647;SDS011;1840;48.892;15.312;2022-11-15T03:06:32;111.70;;;38.60;;
3647;SDS011;1840;48.892;15.312;2022-11-15T03:09:04;130.77;;;41.37;;
3647;SDS011;1840;48.892;15.312;2022-11-15T03:11:39;119.20;;;42.27;;
3647;SDS011;1840;48.892;15.312;2022-11-15T03:14:13;151.23;;;43.80;;
3647;SDS011;1840;48.892;15.312;2022-11-15T03:16:49;135.30;;;42.80;;
3647;SDS011;1840;48.892;15.312;2022-11-15T03:19:25;165.50;;;44.80;;
3647;SDS011;1840;48.892;15.312;2022-11-15T03:21:58;113.67;;;44.00;;
3647;SDS011;1840;48.892;15.312;2022-11-15T03:24:30;106.00;;;43.80;;
3647;SDS011;1840;48.892;15.312;2022-11-15T03:27:00;119.23;;;40.73;;
3647;SDS011;1840;48.892;15.312;2022-11-15T03:29:31;117.43;;;41.43;;
3647;SDS011;1840;48.892;15.312;2022-11-15T03:32:02;164.13;;;45.07;;
3647;SDS011;1840;48.892;15.312;2022-11-15T03:34:37;114.83;;;41.53;;
3647;SDS011;1840;48.892;15.312;2022-11-15T03:37:08;110.83;;;41.80;;
3647;SDS011;1840;48.892;15.312;2022-11-15T03:39:39;132.17;;;42.70;;
3647;SDS011;1840;48.892;15.312;2022-11-15T03:42:10;129.37;;;44.60;;
3647;SDS011;1840;48.892;15.312;2022-11-15T03:44:49;138.10;;;42.57;;
3647;SDS011;1840;48.892;15.312;2022-11-15T03:47:23;124.07;;;44.80;;
3647;SDS011;1840;48.892;15.312;2022-11-15T03:49:58;120.40;;;43.03;;
3647;SDS011;1840;48.892;15.312;2022-11-15T03:52:30;137.67;;;46.47;;
3647;SDS011;1840;48.892;15.312;2022-11-15T03:55:01;112.93;;;41.60;;
3647;SDS011;1840;48.892;15.312;2022-11-15T03:57:30;105.97;;;41.03;;
3647;SDS011;1840;48.892;15.312;2022-11-15T03:59:58;154.83;;;64.27;;
3647;SDS011;1840;48.892;15.312;2022-11-15T04:02:27;108.37;;;42.50;;
3647;SDS011;1840;48.892;15.312;2022-11-15T04:04:54;105.47;;;40.80;;
3647;SDS011;1840;48.892;15.312;2022-11-15T04:07:24;115.37;;;40.97;;
3647;SDS011;1840;48.892;15.312;2022-11-15T04:09:52;107.63;;;41.40;;
3647;SDS011;1840;48.892;15.312;2022-11-15T04:12:29;136.13;;;43.97;;
3647;SDS011;1840;48.892;15.312;2022-11-15T04:14:58;129.57;;;43.47;;
3647;SDS011;1840;48.892;15.312;2022-11-15T04:17:37;103.33;;;40.27;;
3647;SDS011;1840;48.892;15.312;2022-11-15T04:20:07;158.87;;;44.40;;
3647;SDS011;1840;48.892;15.312;2022-11-15T04:22:56;108.47;;;38.00;;
3647;SDS011;1840;48.892;15.312;2022-11-15T04:25:43;107.20;;;42.30;;
3647;SDS011;1840;48.892;15.312;2022-11-15T04:28:11;136.53;;;45.90;;
3647;SDS011;1840;48.892;15.312;2022-11-15T04:30:39;122.50;;;40.67;;
3647;SDS011;1840;48.892;15.312;2022-11-15T04:33:07;117.80;;;43.43;;
3647;SDS011;1840;48.892;15.312;2022-11-15T04:35:35;145.50;;;45.30;;
3647;SDS011;1840;48.892;15.312;2022-11-15T04:38:06;119.10;;;42.47;;
3647;SDS011;1840;48.892;15.312;2022-11-15T04:40:34;108.37;;;40.20;;
3647;SDS011;1840;48.892;15.312;2022-11-15T04:43:03;126.53;;;42.30;;
3647;SDS011;1840;48.892;15.312;2022-11-15T04:45:31;107.33;;;37.93;;
3647;SDS011;1840;48.892;15.312;2022-11-15T04:47:59;104.90;;;38.73;;
3647;SDS011;1840;48.892;15.312;2022-11-15T04:50:27;102.03;;;35.07;;
3647;SDS011;1840;48.892;15.312;2022-11-15T04:52:55;95.80;;;36.07;;
3647;SDS011;1840;48.892;15.312;2022-11-15T04:55:24;84.77;;;32.97;;
3647;SDS011;1840;48.892;15.312;2022-11-15T04:57:58;80.27;;;32.07;;
3647;SDS011;1840;48.892;15.312;2022-11-15T05:00:27;88.73;;;31.03;;
3647;SDS011;1840;48.892;15.312;2022-11-15T05:02:56;82.83;;;31.57;;
3647;SDS011;1840;48.892;15.312;2022-11-15T05:05:42;101.17;;;33.70;;
3647;SDS011;1840;48.892;15.312;2022-11-15T05:08:10;98.10;;;33.70;;
3647;SDS011;1840;48.892;15.312;2022-11-15T05:10:39;99.60;;;34.57;;
3647;SDS011;1840;48.892;15.312;2022-11-15T05:13:07;96.20;;;32.67;;
3647;SDS011;1840;48.892;15.312;2022-11-15T05:15:35;113.73;;;35.70;;
3647;SDS011;1840;48.892;15.312;2022-11-15T05:18:03;102.83;;;35.20;;
3647;SDS011;1840;48.892;15.312;2022-11-15T05:20:31;105.23;;;36.40;;
3647;SDS011;1840;48.892;15.312;2022-11-15T05:23:00;115.40;;;37.47;;
3647;SDS011;1840;48.892;15.312;2022-11-15T05:25:28;121.37;;;40.03;;
3647;SDS011;1840;48.892;15.312;2022-11-15T05:27:57;101.43;;;32.20;;
3647;SDS011;1840;48.892;15.312;2022-11-15T05:30:25;99.77;;;31.80;;
3647;SDS011;1840;48.892;15.312;2022-11-15T05:32:53;90.37;;;30.50;;
3647;SDS011;1840;48.892;15.312;2022-11-15T05:35:24;122.43;;;35.53;;
3647;SDS011;1840;48.892;15.312;2022-11-15T05:37:57;95.37;;;30.20;;
3647;SDS011;1840;48.892;15.312;2022-11-15T05:40:25;93.03;;;30.60;;
3647;SDS011;1840;48.892;15.312;2022-11-15T05:42:53;89.13;;;32.97;;
3647;SDS011;1840;48.892;15.312;2022-11-15T05:45:23;94.30;;;32.43;;
3647;SDS011;1840;48.892;15.312;2022-11-15T05:47:52;89.53;;;31.03;;
3647;SDS011;1840;48.892;15.312;2022-11-15T05:50:23;84.37;;;30.40;;
3647;SDS011;1840;48.892;15.312;2022-11-15T05:52:51;119.33;;;31.30;;
3647;SDS011;1840;48.892;15.312;2022-11-15T05:55:27;82.00;;;29.40;;
3647;SDS011;1840;48.892;15.312;2022-11-15T05:57:55;111.93;;;34.63;;
3647;SDS011;1840;48.892;15.312;2022-11-15T06:00:25;75.30;;;30.53;;
3647;SDS011;1840;48.892;15.312;2022-11-15T06:02:53;75.50;;;27.70;;
3647;SDS011;1840;48.892;15.312;2022-11-15T06:05:21;95.80;;;32.30;;
3647;SDS011;1840;48.892;15.312;2022-11-15T06:07:49;127.03;;;29.70;;
3647;SDS011;1840;48.892;15.312;2022-11-15T06:10:17;145.33;;;31.33;;
3647;SDS011;1840;48.892;15.312;2022-11-15T06:12:45;116.10;;;33.67;;
3647;SDS011;1840;48.892;15.312;2022-11-15T06:15:13;86.07;;;32.23;;
3647;SDS011;1840;48.892;15.312;2022-11-15T06:17:42;78.87;;;30.13;;
3647;SDS011;1840;48.892;15.312;2022-11-15T06:20:10;87.23;;;30.90;;
3647;SDS011;1840;48.892;15.312;2022-11-15T06:22:38;84.87;;;29.60;;
3647;SDS011;1840;48.892;15.312;2022-11-15T06:25:06;74.70;;;30.73;;
3647;SDS011;1840;48.892;15.312;2022-11-15T06:27:34;71.23;;;28.00;;
3647;SDS011;1840;48.892;15.312;2022-11-15T06:30:03;101.90;;;30.87;;
3647;SDS011;1840;48.892;15.312;2022-11-15T06:32:31;92.07;;;28.50;;
3647;SDS011;1840;48.892;15.312;2022-11-15T06:35:01;104.20;;;28.10;;
3647;SDS011;1840;48.892;15.312;2022-11-15T06:37:29;102.50;;;27.33;;
3647;SDS011;1840;48.892;15.312;2022-11-15T06:39:57;113.13;;;27.80;;
3647;SDS011;1840;48.892;15.312;2022-11-15T06:42:25;92.73;;;30.03;;
3647;SDS011;1840;48.892;15.312;2022-11-15T06:44:53;89.83;;;28.20;;
3647;SDS011;1840;48.892;15.312;2022-11-15T06:47:20;72.23;;;25.03;;
3647;SDS011;1840;48.892;15.312;2022-11-15T06:49:48;97.33;;;26.57;;
3647;SDS011;1840;48.892;15.312;2022-11-15T06:52:18;81.67;;;28.97;;
3647;SDS011;1840;48.892;15.312;2022-11-15T06:54:47;92.43;;;27.10;;
3647;SDS011;1840;48.892;15.312;2022-11-15T06:57:15;84.93;;;27.27;;
3647;SDS011;1840;48.892;15.312;2022-11-15T06:59:44;77.20;;;28.53;;
3647;SDS011;1840;48.892;15.312;2022-11-15T07:02:12;90.93;;;26.77;;
3647;SDS011;1840;48.892;15.312;2022-11-15T07:04:40;74.53;;;25.43;;
3647;SDS011;1840;48.892;15.312;2022-11-15T07:07:09;73.97;;;27.20;;
3647;SDS011;1840;48.892;15.312;2022-11-15T07:09:38;116.53;;;28.23;;
3647;SDS011;1840;48.892;15.312;2022-11-15T07:12:06;66.17;;;26.87;;
3647;SDS011;1840;48.892;15.312;2022-11-15T07:14:34;72.03;;;28.77;;
3647;SDS011;1840;48.892;15.312;2022-11-15T07:17:03;72.27;;;26.50;;
3647;SDS011;1840;48.892;15.312;2022-11-15T07:19:31;81.43;;;25.07;;
3647;SDS011;1840;48.892;15.312;2022-11-15T07:21:59;74.40;;;25.50;;
3647;SDS011;1840;48.892;15.312;2022-11-15T07:24:27;79.33;;;24.17;;
3647;SDS011;1840;48.892;15.312;2022-11-15T07:26:56;58.00;;;24.07;;
3647;SDS011;1840;48.892;15.312;2022-11-15T07:29:24;59.83;;;22.33;;
3647;SDS011;1840;48.892;15.312;2022-11-15T07:31:52;79.27;;;26.23;;
3647;SDS011;1840;48.892;15.312;2022-11-15T07:34:21;57.03;;;24.00;;
3647;SDS011;1840;48.892;15.312;2022-11-15T07:36:50;55.87;;;24.37;;
3647;SDS011;1840;48.892;15.312;2022-11-15T07:39:18;49.60;;;24.13;;
3647;SDS011;1840;48.892;15.312;2022-11-15T07:41:46;54.00;;;22.97;;
3647;SDS011;1840;48.892;15.312;2022-11-15T07:44:17;50.23;;;22.83;;
3647;SDS011;1840;48.892;15.312;2022-11-15T07:46:45;49.43;;;22.57;;
3647;SDS011;1840;48.892;15.312;2022-11-15T07:49:12;52.87;;;26.00;;
3647;SDS011;1840;48.892;15.312;2022-11-15T07:51:41;75.87;;;25.60;;
3647;SDS011;1840;48.892;15.312;2022-11-15T07:54:09;63.80;;;27.80;;
3647;SDS011;1840;48.892;15.312;2022-11-15T07:56:36;64.13;;;23.83;;
3647;SDS011;1840;48.892;15.312;2022-11-15T07:59:05;47.40;;;22.67;;
3647;SDS011;1840;48.892;15.312;2022-11-15T08:01:34;47.07;;;21.10;;
3647;SDS011;1840;48.892;15.312;2022-11-15T08:04:03;56.13;;;22.00;;
3647;SDS011;1840;48.892;15.312;2022-11-15T08:06:31;56.07;;;23.00;;
3647;SDS011;1840;48.892;15.312;2022-11-15T08:08:59;42.93;;;20.40;;
3647;SDS011;1840;48.892;15.312;2022-11-15T08:11:27;45.90;;;21.23;;
3647;SDS011;1840;48.892;15.312;2022-11-15T08:13:55;86.87;;;44.10;;
3647;SDS011;1840;48.892;15.312;2022-11-15T08:16:23;68.53;;;30.10;;
3647;SDS011;1840;48.892;15.312;2022-11-15T08:18:52;64.00;;;29.47;;
3647;SDS011;1840;48.892;15.312;2022-11-15T08:21:20;61.80;;;25.20;;
3647;SDS011;1840;48.892;15.312;2022-11-15T08:23:48;65.47;;;31.53;;
3647;SDS011;1840;48.892;15.312;2022-11-15T08:26:16;79.83;;;40.47;;
3647;SDS011;1840;48.892;15.312;2022-11-15T08:28:45;52.27;;;24.80;;
3647;SDS011;1840;48.892;15.312;2022-11-15T08:31:13;46.73;;;22.83;;
3647;SDS011;1840;48.892;15.312;2022-11-15T08:33:43;47.40;;;20.27;;
3647;SDS011;1840;48.892;15.312;2022-11-15T08:36:14;48.67;;;22.27;;
3647;SDS011;1840;48.892;15.312;2022-11-15T08:38:43;42.23;;;21.10;;
3647;SDS011;1840;48.892;15.312;2022-11-15T08:41:13;58.83;;;25.40;;
3647;SDS011;1840;48.892;15.312;2022-11-15T08:43:48;38.33;;;20.40;;
3647;SDS011;1840;48.892;15.312;2022-11-15T08:46:15;66.20;;;26.17;;
3647;SDS011;1840;48.892;15.312;2022-11-15T08:48:44;54.50;;;24.77;;
3647;SDS011;1840;48.892;15.312;2022-11-15T08:51:13;53.93;;;24.20;;
3647;SDS011;1840;48.892;15.312;2022-11-15T08:53:42;39.70;;;20.27;;
3647;SDS011;1840;48.892;15.312;2022-11-15T08:56:11;47.70;;;21.80;;
3647;SDS011;1840;48.892;15.312;2022-11-15T08:58:41;42.53;;;20.17;;
3647;SDS011;1840;48.892;15.312;2022-11-15T09:01:14;42.93;;;20.17;;
3647;SDS011;1840;48.892;15.312;2022-11-15T09:03:44;35.10;;;16.83;;
3647;SDS011;1840;48.892;15.312;2022-11-15T09:06:13;41.63;;;20.90;;
3647;SDS011;1840;48.892;15.312;2022-11-15T09:08:42;34.83;;;18.00;;
3647;SDS011;1840;48.892;15.312;2022-11-15T09:11:14;41.47;;;23.10;;
3647;SDS011;1840;48.892;15.312;2022-11-15T09:13:46;41.23;;;20.83;;
3647;SDS011;1840;48.892;15.312;2022-11-15T09:16:14;40.10;;;19.40;;
3647;SDS011;1840;48.892;15.312;2022-11-15T09:18:42;41.03;;;20.60;;
3647;SDS011;1840;48.892;15.312;2022-11-15T09:21:10;44.07;;;21.67;;
3647;SDS011;1840;48.892;15.312;2022-11-15T09:23:40;38.77;;;20.67;;
3647;SDS011;1840;48.892;15.312;2022-11-15T09:26:08;48.00;;;23.80;;
3647;SDS011;1840;48.892;15.312;2022-11-15T09:28:36;44.90;;;22.70;;
3647;SDS011;1840;48.892;15.312;2022-11-15T09:31:08;37.67;;;20.07;;
3647;SDS011;1840;48.892;15.312;2022-11-15T09:33:36;45.20;;;21.37;;
3647;SDS011;1840;48.892;15.312;2022-11-15T09:36:05;40.03;;;21.63;;
3647;SDS011;1840;48.892;15.312;2022-11-15T09:38:34;50.07;;;26.60;;
3647;SDS011;1840;48.892;15.312;2022-11-15T09:41:20;45.00;;;21.30;;
3647;SDS011;1840;48.892;15.312;2022-11-15T09:44:07;38.33;;;19.97;;
3647;SDS011;1840;48.892;15.312;2022-11-15T09:46:52;55.70;;;30.53;;
3647;SDS011;1840;48.892;15.312;2022-11-15T09:49:26;48.00;;;22.97;;
3647;SDS011;1840;48.892;15.312;2022-11-15T09:51:55;53.13;;;27.60;;
3647;SDS011;1840;48.892;15.312;2022-11-15T09:54:26;38.93;;;21.37;;
3647;SDS011;1840;48.892;15.312;2022-11-15T09:57:21;42.27;;;22.40;;
3647;SDS011;1840;48.892;15.312;2022-11-15T10:00:04;53.43;;;22.53;;
3647;SDS011;1840;48.892;15.312;2022-11-15T10:03:08;43.17;;;21.40;;
3647;SDS011;1840;48.892;15.312;2022-11-15T10:05:40;30.80;;;16.83;;
3647;SDS011;1840;48.892;15.312;2022-11-15T10:11:00;39.37;;;18.43;;
3647;SDS011;1840;48.892;15.312;2022-11-15T10:13:52;40.17;;;16.57;;
3647;SDS011;1840;48.892;15.312;2022-11-15T10:16:28;34.43;;;18.10;;
3647;SDS011;1840;48.892;15.312;2022-11-15T10:19:12;45.17;;;22.00;;
3647;SDS011;1840;48.892;15.312;2022-11-15T10:21:50;45.20;;;19.73;;
3647;SDS011;1840;48.892;15.312;2022-11-15T10:24:26;43.30;;;21.93;;
3647;SDS011;1840;48.892;15.312;2022-11-15T10:26:56;28.97;;;16.30;;
3647;SDS011;1840;48.892;15.312;2022-11-15T10:29:25;78.00;;;22.83;;
3647;SDS011;1840;48.892;15.312;2022-11-15T10:31:53;29.80;;;16.07;;
3647;SDS011;1840;48.892;15.312;2022-11-15T10:34:22;36.10;;;16.93;;
3647;SDS011;1840;48.892;15.312;2022-11-15T10:36:57;35.20;;;16.43;;
3647;SDS011;1840;48.892;15.312;2022-11-15T10:39:26;42.87;;;20.50;;
3647;SDS011;1840;48.892;15.312;2022-11-15T10:41:54;38.27;;;18.80;;
3647;SDS011;1840;48.892;15.312;2022-11-15T10:44:24;29.00;;;15.17;;
3647;SDS011;1840;48.892;15.312;2022-11-15T10:49:57;29.60;;;15.27;;
3647;SDS011;1840;48.892;15.312;2022-11-15T10:52:28;28.00;;;15.10;;
3647;SDS011;1840;48.892;15.312;2022-11-15T10:54:59;34.97;;;17.20;;
3647;SDS011;1840;48.892;15.312;2022-11-15T10:57:32;29.93;;;16.43;;
3647;SDS011;1840;48.892;15.312;2022-11-15T11:00:06;26.83;;;14.50;;
3647;SDS011;1840;48.892;15.312;2022-11-15T11:02:57;32.27;;;16.63;;
3647;SDS011;1840;48.892;15.312;2022-11-15T11:05:27;28.90;;;15.00;;
3647;SDS011;1840;48.892;15.312;2022-11-15T11:08:23;26.53;;;13.93;;
3647;SDS011;1840;48.892;15.312;2022-11-15T11:10:52;28.10;;;14.47;;
3647;SDS011;1840;48.892;15.312;2022-11-15T11:13:29;29.03;;;13.90;;
3647;SDS011;1840;48.892;15.312;2022-11-15T11:16:04;26.20;;;15.27;;
3647;SDS011;1840;48.892;15.312;2022-11-15T11:18:53;28.07;;;14.30;;
3647;SDS011;1840;48.892;15.312;2022-11-15T11:21:26;24.70;;;14.13;;
3647;SDS011;1840;48.892;15.312;2022-11-15T11:24:08;27.70;;;14.40;;
3647;SDS011;1840;48.892;15.312;2022-11-15T11:26:43;28.37;;;15.50;;
3647;SDS011;1840;48.892;15.312;2022-11-15T11:29:26;30.03;;;15.90;;
3647;SDS011;1840;48.892;15.312;2022-11-15T11:32:10;24.53;;;14.40;;
3647;SDS011;1840;48.892;15.312;2022-11-15T11:34:54;39.27;;;16.00;;
3647;SDS011;1840;48.892;15.312;2022-11-15T11:37:30;32.50;;;17.03;;
3647;SDS011;1840;48.892;15.312;2022-11-15T11:40:05;28.30;;;14.33;;
3647;SDS011;1840;48.892;15.312;2022-11-15T11:42:45;29.70;;;15.67;;
3647;SDS011;1840;48.892;15.312;2022-11-15T11:45:28;25.90;;;14.50;;
3647;SDS011;1840;48.892;15.312;2022-11-15T11:48:20;33.73;;;17.27;;
3647;SDS011;1840;48.892;15.312;2022-11-15T11:51:03;33.00;;;16.70;;
3647;SDS011;1840;48.892;15.312;2022-11-15T11:53:37;35.67;;;18.50;;
3647;SDS011;1840;48.892;15.312;2022-11-15T11:56:11;26.37;;;14.80;;
3647;SDS011;1840;48.892;15.312;2022-11-15T11:58:46;42.77;;;17.13;;
3647;SDS011;1840;48.892;15.312;2022-11-15T12:01:20;31.10;;;15.00;;
3647;SDS011;1840;48.892;15.312;2022-11-15T12:03:54;55.27;;;17.37;;
3647;SDS011;1840;48.892;15.312;2022-11-15T12:06:27;29.13;;;15.13;;
3647;SDS011;1840;48.892;15.312;2022-11-15T12:09:00;35.13;;;17.57;;
3647;SDS011;1840;48.892;15.312;2022-11-15T12:11:35;43.93;;;22.13;;
3647;SDS011;1840;48.892;15.312;2022-11-15T12:14:12;37.30;;;20.10;;
3647;SDS011;1840;48.892;15.312;2022-11-15T12:16:48;36.20;;;17.97;;
3647;SDS011;1840;48.892;15.312;2022-11-15T12:19:17;37.23;;;16.47;;
3647;SDS011;1840;48.892;15.312;2022-11-15T12:21:50;27.13;;;15.27;;
3647;SDS011;1840;48.892;15.312;2022-11-15T12:24:25;31.23;;;16.67;;
3647;SDS011;1840;48.892;15.312;2022-11-15T12:26:57;28.47;;;15.57;;
3647;SDS011;1840;48.892;15.312;2022-11-15T12:29:31;36.10;;;19.30;;
3647;SDS011;1840;48.892;15.312;2022-11-15T12:32:04;35.17;;;17.47;;
3647;SDS011;1840;48.892;15.312;2022-11-15T12:34:44;42.13;;;22.13;;
3647;SDS011;1840;48.892;15.312;2022-11-15T12:40:23;36.17;;;18.77;;
3647;SDS011;1840;48.892;15.312;2022-11-15T12:42:57;35.40;;;18.80;;
3647;SDS011;1840;48.892;15.312;2022-11-15T12:45:30;37.60;;;17.80;;
3647;SDS011;1840;48.892;15.312;2022-11-15T12:51:06;61.40;;;26.80;;
3647;SDS011;1840;48.892;15.312;2022-11-15T12:53:34;29.87;;;16.43;;
3647;SDS011;1840;48.892;15.312;2022-11-15T12:56:18;39.07;;;17.13;;
3647;SDS011;1840;48.892;15.312;2022-11-15T12:58:50;36.77;;;19.07;;
3647;SDS011;1840;48.892;15.312;2022-11-15T13:04:26;36.93;;;18.20;;
3647;SDS011;1840;48.892;15.312;2022-11-15T13:06:58;33.93;;;18.50;;
3647;SDS011;1840;48.892;15.312;2022-11-15T13:15:31;42.27;;;22.20;;
3647;SDS011;1840;48.892;15.312;2022-11-15T13:21:03;40.63;;;20.63;;
3647;SDS011;1840;48.892;15.312;2022-11-15T13:24:04;43.97;;;21.87;;
3647;SDS011;1840;48.892;15.312;2022-11-15T13:26:38;35.60;;;17.10;;
3647;SDS011;1840;48.892;15.312;2022-11-15T13:29:14;36.83;;;22.07;;
3647;SDS011;1840;48.892;15.312;2022-11-15T13:31:47;29.50;;;14.73;;
3647;SDS011;1840;48.892;15.312;2022-11-15T13:34:17;33.53;;;17.10;;
3647;SDS011;1840;48.892;15.312;2022-11-15T13:37:12;31.10;;;16.83;;
3647;SDS011;1840;48.892;15.312;2022-11-15T13:40:00;32.70;;;16.13;;
3647;SDS011;1840;48.892;15.312;2022-11-15T13:42:43;35.63;;;18.10;;
3647;SDS011;1840;48.892;15.312;2022-11-15T13:45:12;36.80;;;15.90;;
3647;SDS011;1840;48.892;15.312;2022-11-15T13:47:42;26.43;;;15.03;;
3647;SDS011;1840;48.892;15.312;2022-11-15T13:50:10;28.40;;;15.60;;
3647;SDS011;1840;48.892;15.312;2022-11-15T13:52:40;27.73;;;14.50;;
3647;SDS011;1840;48.892;15.312;2022-11-15T13:55:13;34.43;;;18.70;;
3647;SDS011;1840;48.892;15.312;2022-11-15T13:57:45;32.40;;;17.50;;
3647;SDS011;1840;48.892;15.312;2022-11-15T14:00:25;31.17;;;18.63;;
3647;SDS011;1840;48.892;15.312;2022-11-15T14:03:10;25.53;;;13.30;;
3647;SDS011;1840;48.892;15.312;2022-11-15T14:05:44;33.63;;;15.77;;
3647;SDS011;1840;48.892;15.312;2022-11-15T14:08:26;29.57;;;15.60;;
3647;SDS011;1840;48.892;15.312;2022-11-15T14:11:09;25.57;;;14.50;;
3647;SDS011;1840;48.892;15.312;2022-11-15T14:13:42;26.17;;;14.27;;
3647;SDS011;1840;48.892;15.312;2022-11-15T14:16:33;39.87;;;15.60;;
3647;SDS011;1840;48.892;15.312;2022-11-15T14:19:02;30.60;;;15.00;;
3647;SDS011;1840;48.892;15.312;2022-11-15T14:21:31;35.27;;;17.60;;
3647;SDS011;1840;48.892;15.312;2022-11-15T14:24:15;45.17;;;20.50;;
3647;SDS011;1840;48.892;15.312;2022-11-15T14:26:45;33.90;;;16.70;;
3647;SDS011;1840;48.892;15.312;2022-11-15T14:29:24;43.40;;;18.70;;
3647;SDS011;1840;48.892;15.312;2022-11-15T14:31:53;35.70;;;18.73;;
3647;SDS011;1840;48.892;15.312;2022-11-15T14:34:34;46.13;;;20.83;;
3647;SDS011;1840;48.892;15.312;2022-11-15T14:37:02;45.40;;;21.33;;
3647;SDS011;1840;48.892;15.312;2022-11-15T14:39:29;43.77;;;19.40;;
3647;SDS011;1840;48.892;15.312;2022-11-15T14:41:59;40.07;;;18.70;;
3647;SDS011;1840;48.892;15.312;2022-11-15T14:44:27;37.50;;;18.80;;
3647;SDS011;1840;48.892;15.312;2022-11-15T14:46:55;35.07;;;18.27;;
3647;SDS011;1840;48.892;15.312;2022-11-15T14:49:23;51.30;;;21.03;;
3647;SDS011;1840;48.892;15.312;2022-11-15T14:51:51;46.70;;;20.47;;
3647;SDS011;1840;48.892;15.312;2022-11-15T14:54:20;51.57;;;23.53;;
3647;SDS011;1840;48.892;15.312;2022-11-15T14:56:48;49.47;;;22.73;;
3647;SDS011;1840;48.892;15.312;2022-11-15T14:59:17;87.37;;;58.43;;
3647;SDS011;1840;48.892;15.312;2022-11-15T15:01:45;53.43;;;23.30;;
3647;SDS011;1840;48.892;15.312;2022-11-15T15:04:13;50.43;;;24.23;;
3647;SDS011;1840;48.892;15.312;2022-11-15T15:06:41;46.40;;;19.97;;
3647;SDS011;1840;48.892;15.312;2022-11-15T15:09:09;49.67;;;25.67;;
3647;SDS011;1840;48.892;15.312;2022-11-15T15:11:37;42.10;;;21.60;;
3647;SDS011;1840;48.892;15.312;2022-11-15T15:14:05;51.93;;;21.40;;
3647;SDS011;1840;48.892;15.312;2022-11-15T15:16:36;49.67;;;24.47;;
3647;SDS011;1840;48.892;15.312;2022-11-15T15:19:04;43.77;;;21.77;;
3647;SDS011;1840;48.892;15.312;2022-11-15T15:21:32;52.30;;;23.87;;
3647;SDS011;1840;48.892;15.312;2022-11-15T15:24:03;47.70;;;20.97;;
3647;SDS011;1840;48.892;15.312;2022-11-15T15:26:31;48.30;;;24.87;;